Time;durP1;ratioP1;P1;durP2;ratioP2;P2;SDS_P1;SDS_P2;PMS_P1;PMS_P2;Temp;Humidity;BMP_temperature;BMP_pressure;BME280_temperature;BME280_humidity;BME280_pressure;Samples;Min_cycle;Max_cycle;Signal;HPM_P1;HPM_P2
2022/04/29 00:01:52;;;;;;;11.63;5.45;;;;;;;;;;5013766;28;20085;-65
2022/04/29 00:04:20;;;;;;;8.98;5.30;;;;;;;;;;5003783;28;20123;-66
2022/04/29 00:06:49;;;;;;;10.88;5.40;;;;;;;;;;5006591;28;20064;-65
2022/04/29 00:09:19;;;;;;;10.02;5.55;;;;;;;;;;5010754;28;20049;-66
2022/04/29 00:11:47;;;;;;;12.38;5.43;;;;;;;;;;5009536;28;20046;-65
2022/04/29 00:14:16;;;;;;;13.57;4.95;;;;;;;;;;5008425;28;20054;-65
2022/04/29 00:16:44;;;;;;;8.75;5.32;;;;;;;;;;5001207;28;20165;-65
2022/04/29 00:19:12;;;;;;;13.48;5.38;;;;;;;;;;5007159;28;20369;-66
2022/04/29 00:21:42;;;;;;;10.52;5.25;;;;;;;;;;5012059;28;20112;-66
2022/04/29 00:24:10;;;;;;;12.70;6.18;;;;;;;;;;5007878;28;20568;-66
2022/04/29 00:26:40;;;;;;;11.60;5.93;;;;;;;;;;5005412;28;20174;-65
2022/04/29 00:29:09;;;;;;;9.82;5.05;;;;;;;;;;5009329;28;20062;-66
2022/04/29 00:31:38;;;;;;;8.70;5.72;;;;;;;;;;5010998;28;20115;-68
2022/04/29 00:34:07;;;;;;;9.68;5.03;;;;;;;;;;5009764;28;20564;-66
2022/04/29 00:36:36;;;;;;;11.98;5.60;;;;;;;;;;5008440;28;20053;-66
2022/04/29 00:39:04;;;;;;;10.95;5.47;;;;;;;;;;5010425;28;20052;-67
2022/04/29 00:41:38;;;;;;;7.78;4.95;;;;;;;;;;5005729;28;20053;-65
2022/04/29 00:44:09;;;;;;;11.02;6.00;;;;;;;;;;5009505;28;20058;-66
2022/04/29 00:46:38;;;;;;;10.65;5.47;;;;;;;;;;5012477;28;20108;-66
2022/04/29 00:49:07;;;;;;;8.50;4.72;;;;;;;;;;5008179;28;20088;-66
2022/04/29 00:51:36;;;;;;;11.85;6.00;;;;;;;;;;5000132;28;20061;-65
2022/04/29 00:54:06;;;;;;;11.93;6.20;;;;;;;;;;5011230;28;20085;-65
2022/04/29 00:56:38;;;;;;;12.80;6.15;;;;;;;;;;5009094;28;20057;-67
2022/04/29 00:59:09;;;;;;;8.40;4.82;;;;;;;;;;5009487;28;20406;-66
2022/04/29 01:01:39;;;;;;;10.02;5.75;;;;;;;;;;5010936;28;20061;-66
2022/04/29 01:04:08;;;;;;;11.25;5.57;;;;;;;;;;5004426;28;20053;-66
2022/04/29 01:06:37;;;;;;;10.02;5.40;;;;;;;;;;5011139;28;20149;-65
2022/04/29 01:09:05;;;;;;;10.48;5.00;;;;;;;;;;5010681;28;20497;-67
2022/04/29 01:11:34;;;;;;;8.32;5.00;;;;;;;;;;5008312;28;20050;-68
2022/04/29 01:14:02;;;;;;;10.23;5.40;;;;;;;;;;5007571;28;20104;-65
2022/04/29 01:16:31;;;;;;;11.00;5.72;;;;;;;;;;5011944;28;20125;-66
2022/04/29 01:19:00;;;;;;;10.10;5.50;;;;;;;;;;5009267;28;20046;-65
2022/04/29 01:21:29;;;;;;;10.98;6.75;;;;;;;;;;5011161;28;20081;-65
2022/04/29 01:23:58;;;;;;;9.88;5.57;;;;;;;;;;5007369;28;20085;-66
2022/04/29 01:26:27;;;;;;;9.00;5.85;;;;;;;;;;5009460;28;20054;-65
2022/04/29 01:28:58;;;;;;;9.07;5.50;;;;;;;;;;5008172;28;20046;-66
2022/04/29 01:31:27;;;;;;;9.40;6.00;;;;;;;;;;5010607;28;20073;-65
2022/04/29 01:33:56;;;;;;;9.23;5.90;;;;;;;;;;5011977;28;20088;-66
2022/04/29 01:36:24;;;;;;;10.35;6.32;;;;;;;;;;5009352;28;20046;-65
2022/04/29 01:38:53;;;;;;;10.38;5.80;;;;;;;;;;5009669;28;20054;-66
2022/04/29 01:41:22;;;;;;;11.43;5.97;;;;;;;;;;5010176;28;20084;-66
2022/04/29 01:43:51;;;;;;;9.25;4.85;;;;;;;;;;5009330;28;20497;-66
2022/04/29 01:46:19;;;;;;;12.52;5.38;;;;;;;;;;5007856;28;20049;-67
2022/04/29 01:48:48;;;;;;;10.00;5.78;;;;;;;;;;5005385;28;20081;-65
2022/04/29 01:51:16;;;;;;;9.02;5.47;;;;;;;;;;5005907;28;20115;-66
2022/04/29 01:53:45;;;;;;;10.60;5.55;;;;;;;;;;5009439;28;20472;-66
2022/04/29 01:56:13;;;;;;;12.05;5.22;;;;;;;;;;5010602;28;20072;-66
2022/04/29 01:58:44;;;;;;;8.68;5.38;;;;;;;;;;5007368;28;20267;-66
2022/04/29 02:01:13;;;;;;;9.93;4.90;;;;;;;;;;5009841;28;20378;-65
2022/04/29 02:03:42;;;;;;;11.50;5.03;;;;;;;;;;5008262;28;20145;-65
2022/04/29 02:06:10;;;;;;;11.98;5.60;;;;;;;;;;5007988;28;20049;-65
2022/04/29 02:08:39;;;;;;;10.15;5.13;;;;;;;;;;5004134;28;20129;-66
2022/04/29 02:11:09;;;;;;;8.75;5.28;;;;;;;;;;5007304;28;20061;-66
2022/04/29 02:13:38;;;;;;;13.90;6.13;;;;;;;;;;5000259;28;20046;-65
2022/04/29 02:16:11;;;;;;;9.55;5.65;;;;;;;;;;5003871;28;20069;-67
2022/04/29 02:18:39;;;;;;;9.38;5.53;;;;;;;;;;5010219;28;20049;-66
2022/04/29 02:21:11;;;;;;;10.52;5.72;;;;;;;;;;5007426;28;20486;-66
2022/04/29 02:23:39;;;;;;;7.90;5.30;;;;;;;;;;5003997;28;20108;-66
2022/04/29 02:26:10;;;;;;;11.30;6.50;;;;;;;;;;5005092;28;20445;-66
2022/04/29 02:28:39;;;;;;;10.60;5.30;;;;;;;;;;5000507;28;20129;-65
2022/04/29 02:31:11;;;;;;;9.63;5.68;;;;;;;;;;5002566;28;20462;-65
2022/04/29 02:33:39;;;;;;;11.57;5.80;;;;;;;;;;5005368;28;20046;-66
2022/04/29 02:36:11;;;;;;;11.98;5.95;;;;;;;;;;5005692;28;20504;-65
2022/04/29 02:38:40;;;;;;;10.75;4.90;;;;;;;;;;5006753;28;20088;-66
2022/04/29 02:41:13;;;;;;;10.57;5.47;;;;;;;;;;5003010;28;20046;-65
2022/04/29 02:43:43;;;;;;;8.43;5.38;;;;;;;;;;5007227;28;20061;-66
2022/04/29 02:46:12;;;;;;;9.05;5.18;;;;;;;;;;5008937;28;20199;-65
2022/04/29 02:48:41;;;;;;;7.90;5.20;;;;;;;;;;5007932;28;20501;-66
2022/04/29 02:51:12;;;;;;;8.65;5.07;;;;;;;;;;5009604;28;20136;-65
2022/04/29 02:53:40;;;;;;;12.43;5.47;;;;;;;;;;5008749;28;20073;-65
2022/04/29 02:56:12;;;;;;;8.43;5.22;;;;;;;;;;5006916;28;20126;-66
2022/04/29 02:58:40;;;;;;;8.93;5.32;;;;;;;;;;5005882;28;20077;-65
2022/04/29 03:01:13;;;;;;;7.85;5.25;;;;;;;;;;5009702;28;20406;-65
2022/04/29 03:03:41;;;;;;;9.38;5.32;;;;;;;;;;5006677;28;20053;-65
2022/04/29 03:06:10;;;;;;;9.23;5.53;;;;;;;;;;5006751;28;20672;-64
2022/04/29 03:08:38;;;;;;;7.90;5.18;;;;;;;;;;5006743;28;20100;-65
2022/04/29 03:11:10;;;;;;;12.85;5.30;;;;;;;;;;5009562;28;20084;-65
2022/04/29 03:13:38;;;;;;;11.10;5.35;;;;;;;;;;5011686;28;20053;-65
2022/04/29 03:16:09;;;;;;;9.25;5.03;;;;;;;;;;5008714;28;20048;-64
2022/04/29 03:18:40;;;;;;;9.23;5.55;;;;;;;;;;5007084;28;20146;-65
2022/04/29 03:21:15;;;;;;;11.55;5.75;;;;;;;;;;5012693;28;20100;-65
2022/04/29 03:23:43;;;;;;;10.48;5.00;;;;;;;;;;5010893;28;20138;-65
2022/04/29 03:26:12;;;;;;;8.32;5.38;;;;;;;;;;5008370;28;20046;-67
2022/04/29 03:28:40;;;;;;;8.02;5.13;;;;;;;;;;4999465;28;20039;-65
2022/04/29 03:31:12;;;;;;;8.90;5.32;;;;;;;;;;5008099;28;20096;-66
2022/04/29 03:33:41;;;;;;;8.07;4.95;;;;;;;;;;5007010;28;20045;-65
2022/04/29 03:36:14;;;;;;;9.57;5.00;;;;;;;;;;5010545;28;20046;-65
2022/04/29 03:38:43;;;;;;;11.73;5.15;;;;;;;;;;5010107;28;20046;-65
2022/04/29 03:41:12;;;;;;;13.05;5.72;;;;;;;;;;5005749;28;20201;-66
2022/04/29 03:43:44;;;;;;;10.95;5.05;;;;;;;;;;5007704;28;20096;-65
2022/04/29 03:46:12;;;;;;;7.65;4.75;;;;;;;;;;5012495;28;20498;-66
2022/04/29 03:51:28;;;;;;;11.07;5.05;;;;;;;;;;5002036;28;20108;-65
2022/04/29 03:53:57;;;;;;;8.68;5.18;;;;;;;;;;5011044;28;20046;-65
2022/04/29 03:56:26;;;;;;;10.25;5.10;;;;;;;;;;5008091;28;20046;-65
2022/04/29 03:58:58;;;;;;;8.60;4.78;;;;;;;;;;5010449;28;20050;-65
2022/04/29 04:01:27;;;;;;;11.40;5.20;;;;;;;;;;5008111;28;20100;-66
2022/04/29 04:03:57;;;;;;;9.27;5.38;;;;;;;;;;5009080;28;20053;-66
2022/04/29 04:09:12;;;;;;;9.85;5.18;;;;;;;;;;5009310;28;20046;-66
2022/04/29 04:11:41;;;;;;;10.70;4.97;;;;;;;;;;5005977;28;20077;-64
2022/04/29 04:14:09;;;;;;;9.02;5.43;;;;;;;;;;5006733;28;20050;-65
2022/04/29 04:16:38;;;;;;;9.95;5.20;;;;;;;;;;5007745;28;20089;-65
2022/04/29 04:19:09;;;;;;;6.78;4.38;;;;;;;;;;4999871;28;20049;-65
2022/04/29 04:21:37;;;;;;;10.65;5.28;;;;;;;;;;5007337;28;20100;-65
2022/04/29 04:24:06;;;;;;;11.57;5.13;;;;;;;;;;5012551;28;20556;-65
2022/04/29 04:26:35;;;;;;;8.98;5.18;;;;;;;;;;5011785;28;20057;-66
2022/04/29 04:29:03;;;;;;;11.73;5.50;;;;;;;;;;5009738;28;20046;-66
2022/04/29 04:31:32;;;;;;;10.75;5.03;;;;;;;;;;5008613;28;20046;-65
2022/04/29 04:34:49;;;;;;;13.35;5.10;;;;;;;;;;5005335;28;20125;-65
2022/04/29 04:36:53;;;;;;;10.13;4.47;;;;;;;;;;5008510;28;20133;-66
2022/04/29 04:39:22;;;;;;;11.43;4.95;;;;;;;;;;5005641;28;20054;-65
2022/04/29 04:41:50;;;;;;;9.27;5.32;;;;;;;;;;5008711;28;20065;-65
2022/04/29 04:44:19;;;;;;;9.45;4.75;;;;;;;;;;5007750;28;20054;-65
2022/04/29 04:46:49;;;;;;;10.65;4.97;;;;;;;;;;5007882;28;20060;-65
2022/04/29 04:49:18;;;;;;;8.30;4.57;;;;;;;;;;5004071;28;20442;-65
2022/04/29 04:51:49;;;;;;;8.82;4.72;;;;;;;;;;5010466;28;20046;-65
2022/04/29 04:54:29;;;;;;;8.05;5.28;;;;;;;;;;5007212;28;20041;-65
2022/04/29 04:56:58;;;;;;;9.27;5.10;;;;;;;;;;5006524;28;20237;-66
2022/04/29 04:59:26;;;;;;;12.10;5.15;;;;;;;;;;5008483;28;20084;-65
2022/04/29 05:01:57;;;;;;;11.35;4.65;;;;;;;;;;5010092;28;20053;-66
2022/04/29 05:04:26;;;;;;;8.25;4.95;;;;;;;;;;5007278;28;20046;-65
2022/04/29 05:06:55;;;;;;;7.03;4.38;;;;;;;;;;5003898;28;20046;-66
2022/04/29 05:09:23;;;;;;;7.90;5.00;;;;;;;;;;5004178;28;20075;-66
2022/04/29 05:11:53;;;;;;;11.68;5.47;;;;;;;;;;5007824;28;20038;-65
2022/04/29 05:14:32;;;;;;;12.88;5.28;;;;;;;;;;5003581;28;20486;-65
2022/04/29 05:17:00;;;;;;;13.13;4.88;;;;;;;;;;5005129;28;20120;-66
2022/04/29 05:19:29;;;;;;;10.75;4.82;;;;;;;;;;5009605;28;20065;-66
2022/04/29 05:21:58;;;;;;;7.15;4.93;;;;;;;;;;5008170;28;20054;-66
2022/04/29 05:24:27;;;;;;;8.40;5.03;;;;;;;;;;5012403;28;20048;-66
2022/04/29 05:26:57;;;;;;;10.20;4.80;;;;;;;;;;5010684;28;20052;-66
2022/04/29 05:29:26;;;;;;;10.25;5.70;;;;;;;;;;5004700;28;20053;-65
2022/04/29 05:31:55;;;;;;;12.15;5.32;;;;;;;;;;5001385;28;20478;-65
2022/04/29 05:34:24;;;;;;;13.63;5.38;;;;;;;;;;5008854;28;20057;-66
2022/04/29 05:36:52;;;;;;;8.65;5.45;;;;;;;;;;5009953;28;20049;-66
2022/04/29 05:42:23;;;;;;;9.15;5.05;;;;;;;;;;5004836;28;20046;-67
2022/04/29 05:44:52;;;;;;;10.57;5.77;;;;;;;;;;5010056;28;20445;-65
2022/04/29 05:47:20;;;;;;;10.35;6.03;;;;;;;;;;5011065;28;20062;-65
2022/04/29 05:49:49;;;;;;;14.15;5.65;;;;;;;;;;5011184;28;20049;-65
2022/04/29 05:52:18;;;;;;;11.18;6.38;;;;;;;;;;5010025;28;20050;-65
2022/04/29 05:54:46;;;;;;;11.48;6.20;;;;;;;;;;5007933;28;20394;-65
2022/04/29 05:57:16;;;;;;;10.48;6.03;;;;;;;;;;4997840;28;20050;-67
2022/04/29 05:59:45;;;;;;;10.30;5.63;;;;;;;;;;5009510;28;20053;-65
2022/04/29 06:02:13;;;;;;;20.42;6.47;;;;;;;;;;5005739;28;20101;-66
2022/04/29 06:04:42;;;;;;;11.75;6.25;;;;;;;;;;5006048;28;20046;-66
2022/04/29 06:07:11;;;;;;;10.85;6.05;;;;;;;;;;5005586;28;20053;-65
2022/04/29 06:09:40;;;;;;;11.70;6.15;;;;;;;;;;5000459;28;20055;-65
2022/04/29 06:12:09;;;;;;;14.38;6.25;;;;;;;;;;5009522;28;20052;-64
2022/04/29 06:14:41;;;;;;;13.48;7.03;;;;;;;;;;5008917;28;20513;-64
2022/04/29 06:17:10;;;;;;;13.55;6.57;;;;;;;;;;5007798;28;20042;-65
2022/04/29 06:19:38;;;;;;;11.50;6.45;;;;;;;;;;5008915;28;20064;-64
2022/04/29 06:22:07;;;;;;;10.40;6.35;;;;;;;;;;5008657;28;20068;-64
2022/04/29 06:24:37;;;;;;;12.95;6.28;;;;;;;;;;4996317;28;20479;-64
2022/04/29 06:27:25;;;;;;;12.35;5.95;;;;;;;;;;5006051;28;20141;-64
2022/04/29 06:29:56;;;;;;;11.70;6.68;;;;;;;;;;4998328;28;20077;-65
2022/04/29 06:32:25;;;;;;;10.93;6.47;;;;;;;;;;5009591;28;20042;-65
2022/04/29 06:34:54;;;;;;;12.93;6.68;;;;;;;;;;5006325;28;20561;-65
2022/04/29 06:37:22;;;;;;;9.50;5.25;;;;;;;;;;5010688;28;20126;-65
2022/04/29 06:39:52;;;;;;;16.67;6.43;;;;;;;;;;5011930;28;20048;-67
2022/04/29 06:42:20;;;;;;;12.38;5.50;;;;;;;;;;5010873;28;20046;-65
2022/04/29 06:44:52;;;;;;;9.88;5.88;;;;;;;;;;5003034;28;20471;-67
2022/04/29 06:47:22;;;;;;;10.23;5.72;;;;;;;;;;5003337;28;20070;-65
2022/04/29 06:49:51;;;;;;;12.05;5.95;;;;;;;;;;5007462;28;20046;-67
2022/04/29 06:52:20;;;;;;;9.82;4.90;;;;;;;;;;5001691;28;20053;-66
2022/04/29 06:54:49;;;;;;;7.88;4.75;;;;;;;;;;5013280;28;20119;-65
2022/04/29 06:57:18;;;;;;;7.10;5.45;;;;;;;;;;5012599;28;20057;-65
2022/04/29 06:59:49;;;;;;;11.65;5.05;;;;;;;;;;5008066;28;20490;-65
2022/04/29 07:02:18;;;;;;;8.63;5.30;;;;;;;;;;5004124;28;20063;-65
2022/04/29 07:04:49;;;;;;;8.45;4.65;;;;;;;;;;5004285;28;20061;-65
2022/04/29 07:07:18;;;;;;;12.00;5.70;;;;;;;;;;5000490;28;20062;-65
2022/04/29 07:09:47;;;;;;;7.72;4.70;;;;;;;;;;5012485;28;20069;-65
2022/04/29 07:12:26;;;;;;;7.20;4.28;;;;;;;;;;5005431;28;20185;-66
2022/04/29 07:14:55;;;;;;;8.13;4.75;;;;;;;;;;5010718;28;20401;-66
2022/04/29 07:17:24;;;;;;;5.93;4.18;;;;;;;;;;5009213;28;20045;-67
2022/04/29 07:19:54;;;;;;;7.00;4.75;;;;;;;;;;5001704;28;20046;-66
2022/04/29 07:22:29;;;;;;;8.05;4.25;;;;;;;;;;5010957;28;20052;-66
2022/04/29 07:24:58;;;;;;;7.75;3.90;;;;;;;;;;5010612;28;20050;-66
2022/04/29 07:27:28;;;;;;;7.43;4.55;;;;;;;;;;5003960;28;20120;-66
2022/04/29 07:29:57;;;;;;;6.55;4.30;;;;;;;;;;5010711;28;20046;-66
2022/04/29 07:32:26;;;;;;;7.70;4.40;;;;;;;;;;5006950;28;20124;-66
2022/04/29 07:43:17;;;;;;;7.53;3.90;;;;;;;;;;5010044;28;20485;-66
2022/04/29 07:45:46;;;;;;;6.80;3.92;;;;;;;;;;5009821;28;20548;-66
2022/04/29 07:48:15;;;;;;;8.68;3.83;;;;;;;;;;5008135;28;20232;-66
2022/04/29 07:50:45;;;;;;;6.50;3.95;;;;;;;;;;5005767;28;20487;-66
2022/04/29 07:53:17;;;;;;;6.43;3.88;;;;;;;;;;5007193;28;20049;-67
2022/04/29 07:55:46;;;;;;;6.70;3.65;;;;;;;;;;5012693;28;20050;-66
2022/04/29 07:58:15;;;;;;;5.63;3.83;;;;;;;;;;5009310;28;20075;-66
2022/04/29 08:00:44;;;;;;;6.45;3.72;;;;;;;;;;5013859;28;20335;-66
2022/04/29 08:03:33;;;;;;;7.28;3.85;;;;;;;;;;5014273;28;20073;-66
2022/04/29 08:06:04;;;;;;;5.80;4.10;;;;;;;;;;5011987;28;20054;-66
2022/04/29 08:08:39;;;;;;;7.43;4.20;;;;;;;;;;5013758;28;20120;-66
2022/04/29 08:11:18;;;;;;;6.13;4.18;;;;;;;;;;5009527;28;20072;-65
2022/04/29 08:13:48;;;;;;;4.97;3.42;;;;;;;;;;5009553;28;20065;-67
2022/04/29 08:16:37;;;;;;;5.75;2.95;;;;;;;;;;5011859;28;20073;-67
2022/04/29 08:19:08;;;;;;;5.32;3.20;;;;;;;;;;5011619;28;20486;-66
2022/04/29 08:21:38;;;;;;;8.52;4.07;;;;;;;;;;5006107;28;20053;-67
2022/04/29 08:24:07;;;;;;;11.88;4.65;;;;;;;;;;5010300;28;20045;-67
2022/04/29 08:26:36;;;;;;;8.32;3.65;;;;;;;;;;5016041;28;20054;-66
2022/04/29 08:29:05;;;;;;;7.28;2.90;;;;;;;;;;5014163;28;20486;-67
2022/04/29 08:31:34;;;;;;;4.68;2.80;;;;;;;;;;5012180;28;20045;-67
2022/04/29 08:34:04;;;;;;;4.13;2.70;;;;;;;;;;5015578;28;20044;-66
2022/04/29 08:36:34;;;;;;;4.93;3.13;;;;;;;;;;5010597;28;20415;-66
2022/04/29 08:39:04;;;;;;;4.65;2.45;;;;;;;;;;5002890;28;20046;-66
2022/04/29 08:41:34;;;;;;;6.70;3.35;;;;;;;;;;5015981;28;20042;-66
2022/04/29 08:44:07;;;;;;;4.55;3.17;;;;;;;;;;5013734;28;20045;-66
2022/04/29 08:46:36;;;;;;;4.25;2.58;;;;;;;;;;5015191;28;20072;-67
2022/04/29 08:49:05;;;;;;;4.50;2.92;;;;;;;;;;5007340;28;20046;-66
2022/04/29 08:51:35;;;;;;;3.47;2.42;;;;;;;;;;5013605;28;20108;-66
2022/04/29 08:54:06;;;;;;;7.57;2.63;;;;;;;;;;5011944;28;20449;-66
2022/04/29 08:59:33;;;;;;;6.90;2.67;;;;;;;;;;4932788;28;20060;-66
2022/04/29 09:02:02;;;;;;;6.95;3.05;;;;;;;;;;4988571;28;20386;-70
2022/04/29 09:04:32;;;;;;;6.75;2.85;;;;;;;;;;5011473;28;20053;-66
2022/04/29 09:07:01;;;;;;;5.13;2.95;;;;;;;;;;5004338;28;20060;-67
2022/04/29 09:09:31;;;;;;;4.00;2.80;;;;;;;;;;4995962;28;20062;-68
2022/04/29 09:12:15;;;;;;;6.05;3.25;;;;;;;;;;5013664;28;20064;-66
2022/04/29 09:14:44;;;;;;;4.60;2.90;;;;;;;;;;5009953;28;20045;-66
2022/04/29 09:17:26;;;;;;;5.75;2.63;;;;;;;;;;5010004;28;20085;-67
2022/04/29 09:19:55;;;;;;;5.80;3.30;;;;;;;;;;5007765;28;20113;-67
2022/04/29 09:22:30;;;;;;;5.43;2.63;;;;;;;;;;5004220;28;20042;-67
2022/04/29 09:25:04;;;;;;;4.38;2.53;;;;;;;;;;4995424;28;20050;-66
2022/04/29 09:27:54;;;;;;;3.92;2.53;;;;;;;;;;5000333;28;20061;-67
2022/04/29 09:30:33;;;;;;;5.80;2.50;;;;;;;;;;4994988;28;20053;-65
2022/04/29 09:33:02;;;;;;;5.00;3.28;;;;;;;;;;5000883;28;20054;-66
2022/04/29 09:35:41;;;;;;;7.00;2.92;;;;;;;;;;5003627;28;20100;-66
2022/04/29 09:41:00;;;;;;;4.47;2.70;;;;;;;;;;4993391;28;20054;-66
2022/04/29 09:43:33;;;;;;;4.35;2.60;;;;;;;;;;5005885;28;20463;-67
2022/04/29 09:46:18;;;;;;;4.47;2.58;;;;;;;;;;5004788;28;20546;-66
2022/04/29 09:48:58;;;;;;;4.22;2.83;;;;;;;;;;5001361;28;20049;-66
2022/04/29 09:51:40;;;;;;;4.85;2.53;;;;;;;;;;5004755;28;20042;-67
2022/04/29 09:54:12;;;;;;;5.38;2.67;;;;;;;;;;5001450;28;20060;-66
2022/04/29 09:56:43;;;;;;;3.85;2.40;;;;;;;;;;4993432;28;20554;-66
2022/04/29 09:59:12;;;;;;;3.47;2.35;;;;;;;;;;4994163;28;20551;-66
2022/04/29 10:01:42;;;;;;;5.78;2.65;;;;;;;;;;5004488;28;20096;-67
2022/04/29 10:04:12;;;;;;;6.13;2.45;;;;;;;;;;4998837;28;20050;-66
2022/04/29 10:06:42;;;;;;;5.75;2.80;;;;;;;;;;4995510;28;20046;-66
2022/04/29 10:09:12;;;;;;;5.57;3.22;;;;;;;;;;5011149;28;20411;-66
2022/04/29 10:11:45;;;;;;;3.50;2.38;;;;;;;;;;5011281;28;20053;-66
2022/04/29 10:14:16;;;;;;;5.28;2.88;;;;;;;;;;4993322;28;20046;-67
2022/04/29 10:21:15;;;;;;;4.78;2.70;;;;;;;;;;5013008;28;20077;-66
2022/04/29 10:22:24;;;;;;;4.47;2.83;;;;;;;;;;4993344;28;20050;-67
2022/04/29 10:24:52;;;;;;;4.68;2.95;;;;;;;;;;5005734;28;20046;-66
2022/04/29 10:27:22;;;;;;;4.88;3.03;;;;;;;;;;4994848;28;20502;-66
2022/04/29 10:29:51;;;;;;;6.70;2.70;;;;;;;;;;5001170;28;20553;-67
2022/04/29 10:32:21;;;;;;;7.13;2.63;;;;;;;;;;5005603;28;20085;-66
2022/04/29 10:34:54;;;;;;;4.60;2.80;;;;;;;;;;5003207;28;20088;-67
2022/04/29 10:37:32;;;;;;;4.47;2.75;;;;;;;;;;5010498;28;20046;-66
2022/04/29 10:40:11;;;;;;;4.50;2.95;;;;;;;;;;4988990;28;20057;-67
2022/04/29 10:43:01;;;;;;;4.88;2.97;;;;;;;;;;5003410;28;20129;-67
2022/04/29 10:45:32;;;;;;;5.35;3.03;;;;;;;;;;5006288;28;20058;-66
2022/04/29 10:48:20;;;;;;;5.25;3.00;;;;;;;;;;5005707;28;20050;-66
2022/04/29 10:50:49;;;;;;;7.75;3.33;;;;;;;;;;5004333;28;20145;-67
2022/04/29 10:53:17;;;;;;;4.63;3.03;;;;;;;;;;5006516;28;20422;-67
2022/04/29 10:55:46;;;;;;;4.90;2.97;;;;;;;;;;5000787;28;20054;-67
2022/04/29 10:58:20;;;;;;;4.28;2.72;;;;;;;;;;5002177;28;20085;-66
2022/04/29 11:00:57;;;;;;;4.53;3.03;;;;;;;;;;5010555;28;20388;-67
2022/04/29 11:03:38;;;;;;;5.05;2.72;;;;;;;;;;4991742;28;20113;-67
2022/04/29 11:06:16;;;;;;;5.50;2.50;;;;;;;;;;5005653;28;20050;-67
2022/04/29 11:08:46;;;;;;;5.80;2.85;;;;;;;;;;4997876;28;20050;-67
2022/04/29 11:11:17;;;;;;;4.05;2.38;;;;;;;;;;5002543;28;20058;-67
2022/04/29 11:13:50;;;;;;;4.35;2.67;;;;;;;;;;5007338;28;20050;-66
2022/04/29 11:16:20;;;;;;;5.22;3.42;;;;;;;;;;5010774;28;20050;-66
2022/04/29 11:19:10;;;;;;;4.55;2.70;;;;;;;;;;5007688;28;20207;-66
2022/04/29 11:24:43;;;;;;;6.45;3.40;;;;;;;;;;5007143;28;20081;-66
2022/04/29 11:27:12;;;;;;;4.85;3.28;;;;;;;;;;4997662;28;20176;-66
2022/04/29 11:29:44;;;;;;;5.47;3.25;;;;;;;;;;4998399;28;20050;-66
2022/04/29 11:32:14;;;;;;;4.88;2.83;;;;;;;;;;5005823;28;20046;-67
2022/04/29 11:35:04;;;;;;;5.85;3.30;;;;;;;;;;5006684;28;20290;-66
2022/04/29 11:37:34;;;;;;;6.00;3.13;;;;;;;;;;5010397;28;20513;-66
2022/04/29 11:40:04;;;;;;;6.53;3.67;;;;;;;;;;5012175;28;20049;-67
2022/04/29 11:42:33;;;;;;;4.10;2.95;;;;;;;;;;5010514;28;20046;-66
2022/04/29 11:45:08;;;;;;;6.53;2.95;;;;;;;;;;5007789;28;20047;-66
2022/04/29 11:47:38;;;;;;;4.45;2.97;;;;;;;;;;5011615;28;20108;-66
2022/04/29 11:50:07;;;;;;;5.93;3.55;;;;;;;;;;5005718;28;20064;-67
2022/04/29 11:52:39;;;;;;;7.35;3.33;;;;;;;;;;5013165;28;20050;-66
2022/04/29 11:55:09;;;;;;;4.45;2.88;;;;;;;;;;5004017;28;20457;-68
2022/04/29 11:57:44;;;;;;;4.40;2.70;;;;;;;;;;5002598;28;20426;-68
2022/04/29 12:00:22;;;;;;;6.25;3.63;;;;;;;;;;5012889;28;20052;-66
2022/04/29 12:02:53;;;;;;;4.55;2.85;;;;;;;;;;5013443;28;20073;-67
2022/04/29 12:05:23;;;;;;;5.07;3.63;;;;;;;;;;5019542;28;20042;-67
2022/04/29 12:07:52;;;;;;;6.93;3.17;;;;;;;;;;5011572;28;20037;-68
2022/04/29 12:10:23;;;;;;;6.95;3.60;;;;;;;;;;5008570;28;20464;-66
2022/04/29 12:12:55;;;;;;;5.43;3.63;;;;;;;;;;5012009;28;20046;-67
2022/04/29 12:15:26;;;;;;;5.43;3.75;;;;;;;;;;5004489;28;20801;-67
2022/04/29 12:17:59;;;;;;;7.25;4.13;;;;;;;;;;5009337;28;20050;-66
2022/04/29 12:20:37;;;;;;;6.22;4.63;;;;;;;;;;5007139;28;20085;-67
2022/04/29 12:23:13;;;;;;;8.05;4.93;;;;;;;;;;4996442;28;20046;-67
2022/04/29 12:25:45;;;;;;;8.95;4.65;;;;;;;;;;5010244;28;20141;-67
2022/04/29 12:28:15;;;;;;;6.32;4.43;;;;;;;;;;5014029;28;20046;-66
2022/04/29 12:36:52;;;;;;;7.60;4.47;;;;;;;;;;5007294;28;20050;-67
2022/04/29 12:39:24;;;;;;;7.40;3.97;;;;;;;;;;5006246;28;20047;-67
2022/04/29 12:42:00;;;;;;;6.88;4.13;;;;;;;;;;5000813;28;20108;-66
2022/04/29 12:47:22;;;;;;;5.75;3.45;;;;;;;;;;5001310;28;20038;-67
2022/04/29 12:49:53;;;;;;;4.65;3.30;;;;;;;;;;5008322;28;20132;-67
2022/04/29 12:52:22;;;;;;;5.13;3.78;;;;;;;;;;5008848;28;20061;-68
2022/04/29 12:54:50;;;;;;;7.50;3.65;;;;;;;;;;5004825;28;20104;-67
2022/04/29 12:57:19;;;;;;;5.80;3.55;;;;;;;;;;5003947;28;20572;-67
2022/04/29 12:59:49;;;;;;;6.30;3.60;;;;;;;;;;5006851;28;20192;-67
2022/04/29 13:02:20;;;;;;;5.88;3.60;;;;;;;;;;5006222;28;20046;-67
2022/04/29 13:04:49;;;;;;;5.00;3.05;;;;;;;;;;5001140;28;20050;-67
2022/04/29 13:07:20;;;;;;;6.28;3.80;;;;;;;;;;5007055;28;20065;-67
2022/04/29 13:09:49;;;;;;;5.40;2.65;;;;;;;;;;5007048;28;20053;-68
2022/04/29 13:12:18;;;;;;;4.15;2.88;;;;;;;;;;4999612;28;20058;-68
2022/04/29 13:14:47;;;;;;;5.07;3.40;;;;;;;;;;4997383;28;20054;-67
2022/04/29 13:17:16;;;;;;;5.53;3.75;;;;;;;;;;5007597;28;20049;-67
2022/04/29 13:19:44;;;;;;;5.05;3.53;;;;;;;;;;5007831;28;20054;-67
2022/04/29 13:22:13;;;;;;;4.85;3.30;;;;;;;;;;5002397;28;20156;-67
2022/04/29 13:24:43;;;;;;;4.80;3.30;;;;;;;;;;5002116;28;20050;-68
2022/04/29 13:27:12;;;;;;;4.93;3.13;;;;;;;;;;4996373;28;20050;-68
2022/04/29 13:29:41;;;;;;;4.38;3.05;;;;;;;;;;5003824;28;20045;-67
2022/04/29 13:32:10;;;;;;;6.20;3.42;;;;;;;;;;5007567;28;20112;-67
2022/04/29 13:34:39;;;;;;;4.07;3.10;;;;;;;;;;5004955;28;20068;-67
2022/04/29 13:37:09;;;;;;;3.92;2.92;;;;;;;;;;4999995;28;20046;-67
2022/04/29 13:39:38;;;;;;;5.57;3.78;;;;;;;;;;5004115;28;20402;-67
2022/04/29 13:42:09;;;;;;;4.47;3.47;;;;;;;;;;5005662;28;20057;-66
2022/04/29 13:44:37;;;;;;;4.47;3.00;;;;;;;;;;5006752;28;20057;-66
2022/04/29 13:47:07;;;;;;;5.65;3.40;;;;;;;;;;5004731;28;20133;-66
2022/04/29 13:49:36;;;;;;;4.43;3.38;;;;;;;;;;4998748;28;20069;-67
2022/04/29 13:54:47;;;;;;;4.60;3.15;;;;;;;;;;5001871;28;20054;-67
2022/04/29 13:57:17;;;;;;;5.55;3.50;;;;;;;;;;5004635;28;20049;-67
2022/04/29 13:59:45;;;;;;;5.80;3.80;;;;;;;;;;5007261;28;20149;-66
2022/04/29 14:02:14;;;;;;;6.10;2.60;;;;;;;;;;5006365;28;20075;-66
2022/04/29 14:04:43;;;;;;;6.57;3.78;;;;;;;;;;4999314;28;20045;-68
2022/04/29 14:07:13;;;;;;;5.10;3.42;;;;;;;;;;4999558;28;20112;-67
2022/04/29 14:09:42;;;;;;;4.47;2.80;;;;;;;;;;4999765;28;20058;-66
2022/04/29 14:12:11;;;;;;;6.40;3.20;;;;;;;;;;4996382;28;20046;-67
2022/04/29 14:14:43;;;;;;;4.43;2.90;;;;;;;;;;5007578;28;20497;-68
2022/04/29 14:17:12;;;;;;;5.63;3.42;;;;;;;;;;5004414;28;20046;-69
2022/04/29 14:19:41;;;;;;;4.80;2.97;;;;;;;;;;5001716;28;20060;-67
2022/04/29 14:22:09;;;;;;;5.28;3.17;;;;;;;;;;5003863;28;20046;-67
2022/04/29 14:24:38;;;;;;;4.43;2.88;;;;;;;;;;5007787;28;20053;-67
2022/04/29 14:27:07;;;;;;;4.90;3.38;;;;;;;;;;5006570;28;20049;-66
2022/04/29 14:29:36;;;;;;;4.00;2.80;;;;;;;;;;5009565;28;20065;-67
2022/04/29 14:32:09;;;;;;;4.53;3.53;;;;;;;;;;5000568;28;20046;-67
2022/04/29 14:34:37;;;;;;;7.32;3.05;;;;;;;;;;5002084;28;20133;-66
2022/04/29 14:37:06;;;;;;;5.50;3.35;;;;;;;;;;5009855;28;20050;-66
2022/04/29 14:39:35;;;;;;;5.60;2.80;;;;;;;;;;5003313;28;20081;-65
2022/04/29 14:42:06;;;;;;;4.30;2.92;;;;;;;;;;5005158;28;20100;-66
2022/04/29 14:44:35;;;;;;;6.50;3.47;;;;;;;;;;5003315;28;20089;-65
2022/04/29 14:47:04;;;;;;;5.35;3.33;;;;;;;;;;5002867;28;20061;-66
2022/04/29 14:49:34;;;;;;;6.70;3.38;;;;;;;;;;5002872;28;20046;-67
2022/04/29 14:52:03;;;;;;;5.80;3.53;;;;;;;;;;5003132;28;20050;-68
2022/04/29 14:54:32;;;;;;;7.43;3.65;;;;;;;;;;5007923;28;20053;-68
2022/04/29 14:57:00;;;;;;;5.97;3.55;;;;;;;;;;5009053;28;20152;-66
2022/04/29 14:59:29;;;;;;;4.30;3.15;;;;;;;;;;5009843;28;20046;-67
2022/04/29 15:01:58;;;;;;;4.03;3.17;;;;;;;;;;5003466;28;20054;-67
2022/04/29 15:04:27;;;;;;;4.75;3.20;;;;;;;;;;5005015;28;20672;-67
2022/04/29 15:06:58;;;;;;;4.25;3.05;;;;;;;;;;5003967;28;20037;-67
2022/04/29 15:15:37;;;;;;;4.43;3.13;;;;;;;;;;5006886;28;20185;-67
2022/04/29 15:18:07;;;;;;;5.40;3.90;;;;;;;;;;5008095;28;20058;-67
2022/04/29 15:20:36;;;;;;;7.75;4.00;;;;;;;;;;5007603;28;20046;-68
2022/04/29 15:23:06;;;;;;;4.80;3.92;;;;;;;;;;5005297;28;20145;-68
2022/04/29 15:25:36;;;;;;;6.75;3.40;;;;;;;;;;5004744;28;20100;-66
2022/04/29 15:28:05;;;;;;;5.72;3.42;;;;;;;;;;5013425;28;20413;-67
2022/04/29 15:30:38;;;;;;;5.32;3.28;;;;;;;;;;5007570;28;20049;-67
2022/04/29 15:33:07;;;;;;;7.00;4.07;;;;;;;;;;5008153;28;20038;-66
2022/04/29 15:35:35;;;;;;;5.95;3.70;;;;;;;;;;5007144;28;20055;-67
2022/04/29 15:38:04;;;;;;;7.43;4.05;;;;;;;;;;5006426;28;20073;-67
2022/04/29 15:40:34;;;;;;;6.63;4.03;;;;;;;;;;5007220;28;20045;-67
2022/04/29 15:43:09;;;;;;;6.82;4.40;;;;;;;;;;5008557;28;20570;-66
2022/04/29 15:45:38;;;;;;;6.50;3.67;;;;;;;;;;5007831;28;20504;-67